Time;durP1;ratioP1;P1;durP2;ratioP2;P2;SDS_P1;SDS_P2;PMS_P1;PMS_P2;Temp;Humidity;BMP_temperature;BMP_pressure;BME280_temperature;BME280_humidity;BME280_pressure;Samples;Min_cycle;Max_cycle;Signal;HPM_P1;HPM_P2
2021/06/23 00:00:56;;;;;;;4.30;4.00;;;19.50;99.90;;;;;;4960073;28;20955;-50
2021/06/23 00:03:23;;;;;;;4.47;4.03;;;19.50;99.90;;;;;;4968488;28;20222;-51
2021/06/23 00:05:49;;;;;;;4.78;4.38;;;19.50;99.90;;;;;;4967804;28;20588;-50
2021/06/23 00:08:14;;;;;;;4.40;4.00;;;19.50;99.90;;;;;;4961779;28;20208;-50
2021/06/23 00:10:40;;;;;;;4.30;3.90;;;19.50;99.90;;;;;;4971833;28;20210;-51
2021/06/23 00:13:08;;;;;;;4.20;3.90;;;19.50;99.90;;;;;;4970197;28;20188;-51
2021/06/23 00:15:35;;;;;;;4.40;4.00;;;19.40;99.90;;;;;;4961138;28;20553;-51
2021/06/23 00:18:01;;;;;;;4.65;4.25;;;19.40;99.90;;;;;;4968379;28;20573;-51
2021/06/23 00:20:27;;;;;;;5.47;4.70;;;19.50;99.90;;;;;;4959614;28;20250;-51
2021/06/23 00:22:53;;;;;;;7.20;4.73;;;19.50;99.90;;;;;;4973819;28;20660;-51
2021/06/23 00:25:19;;;;;;;4.65;4.30;;;19.40;99.90;;;;;;4966876;28;20194;-48
2021/06/23 00:27:45;;;;;;;5.50;5.10;;;19.40;99.90;;;;;;4961352;28;20261;-48
2021/06/23 00:30:11;;;;;;;5.20;4.80;;;19.50;99.90;;;;;;4971513;28;20978;-48
2021/06/23 00:32:40;;;;;;;6.68;4.85;;;19.50;99.90;;;;;;4967164;28;20444;-51
2021/06/23 00:35:06;;;;;;;6.03;5.53;;;19.50;99.90;;;;;;4960201;28;20526;-50
2021/06/23 00:37:32;;;;;;;5.03;4.65;;;19.50;99.90;;;;;;4965810;28;20200;-51
2021/06/23 00:39:57;;;;;;;5.00;4.60;;;19.50;99.90;;;;;;4966531;28;20194;-50
2021/06/23 00:42:23;;;;;;;5.50;5.00;;;19.50;99.90;;;;;;4983085;28;20652;-51
2021/06/23 00:44:49;;;;;;;5.90;5.40;;;19.50;99.90;;;;;;4965423;28;20237;-50
2021/06/23 00:47:15;;;;;;;5.90;5.40;;;19.50;99.90;;;;;;4966766;28;20290;-51
2021/06/23 00:49:41;;;;;;;7.28;5.85;;;19.30;99.90;;;;;;4967343;28;20199;-51
2021/06/23 00:52:07;;;;;;;5.90;5.50;;;19.30;99.90;;;;;;4966882;28;20187;-50
2021/06/23 00:54:34;;;;;;;5.50;5.10;;;19.20;99.90;;;;;;4963222;28;20184;-51
2021/06/23 00:57:05;;;;;;;5.70;5.30;;;19.30;99.90;;;;;;4961912;28;20204;-51
2021/06/23 00:59:31;;;;;;;6.20;5.60;;;19.30;99.90;;;;;;4965796;28;20197;-51
2021/06/23 01:02:02;;;;;;;6.53;5.80;;;19.30;99.90;;;;;;4980703;28;20235;-50
2021/06/23 01:04:28;;;;;;;5.95;5.30;;;19.30;99.90;;;;;;4967534;28;20283;-51
2021/06/23 01:06:54;;;;;;;6.70;6.07;;;19.20;99.90;;;;;;4970539;28;20277;-51
2021/06/23 01:09:21;;;;;;;7.10;6.43;;;19.00;99.90;;;;;;4980672;28;20203;-51
2021/06/23 01:12:09;;;;;;;7.25;6.30;;;18.90;99.90;;;;;;4972817;28;20607;-51
2021/06/23 01:14:36;;;;;;;6.47;5.80;;;18.90;99.90;;;;;;4967216;28;20233;-51
2021/06/23 01:17:03;;;;;;;6.40;5.80;;;18.90;99.90;;;;;;4961042;28;20239;-51
2021/06/23 01:19:32;;;;;;;7.13;6.25;;;19.00;99.90;;;;;;4972895;28;20233;-51
2021/06/23 01:21:58;;;;;;;5.93;5.53;;;19.10;99.90;;;;;;4960634;28;20190;-51
2021/06/23 01:24:23;;;;;;;6.13;5.53;;;19.10;99.90;;;;;;4967247;28;20201;-51
2021/06/23 01:26:49;;;;;;;6.10;5.60;;;18.90;99.90;;;;;;4965289;28;20249;-50
2021/06/23 01:29:14;;;;;;;4.67;4.13;;;19.00;99.90;;;;;;4960214;28;20207;-50
2021/06/23 01:31:40;;;;;;;4.33;4.03;;;18.90;99.90;;;;;;4962547;28;20188;-51
2021/06/23 01:34:06;;;;;;;4.63;4.23;;;18.90;99.90;;;;;;4965946;28;20662;-51
2021/06/23 01:36:33;;;;;;;5.77;5.27;;;18.90;99.90;;;;;;4963912;28;20193;-51
2021/06/23 01:38:58;;;;;;;6.40;5.90;;;18.90;99.90;;;;;;4969235;28;20832;-51
2021/06/23 01:41:24;;;;;;;5.97;5.57;;;18.70;99.90;;;;;;4966589;28;20193;-50
2021/06/23 01:43:49;;;;;;;5.63;5.23;;;18.80;99.90;;;;;;4969280;28;20178;-51
2021/06/23 01:46:15;;;;;;;5.90;5.30;;;18.90;99.90;;;;;;4965070;28;20776;-51
2021/06/23 01:48:41;;;;;;;5.00;4.60;;;18.70;99.90;;;;;;4968928;28;20206;-51
2021/06/23 01:51:10;;;;;;;5.13;4.73;;;18.80;99.90;;;;;;4956759;28;20215;-50
2021/06/23 01:53:37;;;;;;;5.28;4.70;;;18.90;99.90;;;;;;4960557;28;20184;-51
2021/06/23 01:56:04;;;;;;;5.20;4.70;;;18.90;99.90;;;;;;4961983;28;20179;-49
2021/06/23 01:58:31;;;;;;;7.25;5.85;;;18.80;99.90;;;;;;4965433;28;20211;-49
2021/06/23 02:01:14;;;;;;;6.50;4.50;;;18.90;99.90;;;;;;4962737;28;20691;-50
2021/06/23 02:03:54;;;;;;;4.93;4.43;;;18.80;99.90;;;;;;4966053;28;20238;-49
2021/06/23 02:06:56;;;;;;;4.65;4.30;;;18.80;99.90;;;;;;4964080;28;20206;-49
2021/06/23 02:09:33;;;;;;;6.68;5.72;;;18.70;99.90;;;;;;4970544;28;20290;-50
2021/06/23 02:12:11;;;;;;;5.82;5.22;;;18.70;99.90;;;;;;4963180;28;20179;-51
2021/06/23 02:14:38;;;;;;;6.38;5.78;;;18.70;99.90;;;;;;4960394;28;20180;-49
2021/06/23 02:17:07;;;;;;;8.07;6.25;;;18.70;99.90;;;;;;4963346;28;20204;-49
2021/06/23 02:19:49;;;;;;;5.07;4.68;;;18.70;99.90;;;;;;4959194;28;20638;-49
2021/06/23 02:22:21;;;;;;;6.45;5.63;;;18.70;99.90;;;;;;4963557;28;20265;-49
2021/06/23 02:24:49;;;;;;;5.22;4.82;;;18.60;99.90;;;;;;4959064;28;20306;-48
2021/06/23 02:27:15;;;;;;;5.97;4.90;;;18.50;99.90;;;;;;4959957;28;20209;-49
2021/06/23 02:29:43;;;;;;;4.63;4.23;;;18.50;99.90;;;;;;4957986;28;20253;-48
2021/06/23 02:32:16;;;;;;;4.45;4.15;;;18.40;99.90;;;;;;4963386;28;20180;-49
2021/06/23 02:34:44;;;;;;;4.47;4.05;;;18.40;99.90;;;;;;4982287;28;20176;-48
2021/06/23 02:37:10;;;;;;;3.50;3.20;;;18.40;99.90;;;;;;4966777;28;20636;-48
2021/06/23 02:39:37;;;;;;;6.70;4.20;;;18.40;99.90;;;;;;4961806;28;20195;-48
2021/06/23 02:42:04;;;;;;;5.82;5.38;;;18.30;99.90;;;;;;4965215;28;20199;-48
2021/06/23 02:44:29;;;;;;;5.75;5.25;;;18.20;99.90;;;;;;4960970;28;20197;-49
2021/06/23 02:46:55;;;;;;;6.90;4.60;;;18.30;99.90;;;;;;4960916;28;20218;-48
2021/06/23 02:49:22;;;;;;;5.13;4.73;;;18.20;99.90;;;;;;4959415;28;20211;-48
2021/06/23 02:51:48;;;;;;;5.65;5.25;;;18.10;99.90;;;;;;4966578;28;20183;-49
2021/06/23 02:54:14;;;;;;;7.90;7.10;;;18.00;99.90;;;;;;4962941;28;20184;-50
2021/06/23 02:56:41;;;;;;;5.85;5.45;;;18.00;99.90;;;;;;4982513;28;20184;-50
2021/06/23 02:59:08;;;;;;;7.93;6.55;;;18.00;99.90;;;;;;4960906;28;20653;-49
2021/06/23 03:01:33;;;;;;;6.50;6.00;;;18.00;99.90;;;;;;4968253;28;20180;-50
2021/06/23 03:03:59;;;;;;;8.80;5.77;;;18.00;99.90;;;;;;4963699;28;20191;-49
2021/06/23 03:06:25;;;;;;;7.90;6.50;;;18.10;99.90;;;;;;4964513;28;20184;-49
2021/06/23 03:08:51;;;;;;;7.77;6.97;;;18.10;99.90;;;;;;4961456;28;20249;-49
2021/06/23 03:11:16;;;;;;;6.80;6.30;;;17.90;99.90;;;;;;4967178;28;20206;-49
2021/06/23 03:13:42;;;;;;;7.30;6.70;;;17.90;99.90;;;;;;4968139;28;20431;-49
2021/06/23 03:16:08;;;;;;;6.50;6.00;;;17.90;99.90;;;;;;4960858;28;20188;-49
2021/06/23 03:18:34;;;;;;;6.30;5.70;;;17.70;99.90;;;;;;4962261;28;20227;-49
2021/06/23 03:21:02;;;;;;;6.68;6.07;;;17.80;99.90;;;;;;4958711;28;20602;-49
2021/06/23 03:23:28;;;;;;;7.10;6.50;;;17.90;99.90;;;;;;4963628;28;20197;-49
2021/06/23 03:25:53;;;;;;;6.18;5.68;;;18.00;99.90;;;;;;4964004;28;20656;-49
2021/06/23 03:28:20;;;;;;;6.50;6.00;;;18.00;99.90;;;;;;4958211;28;20208;-49
2021/06/23 03:30:46;;;;;;;6.65;5.97;;;17.80;99.90;;;;;;4962053;28;20248;-49
2021/06/23 03:33:11;;;;;;;5.40;4.90;;;17.80;99.90;;;;;;4966811;28;20293;-49
2021/06/23 03:35:37;;;;;;;5.17;4.73;;;18.00;99.90;;;;;;4968545;28;20688;-49
2021/06/23 03:38:03;;;;;;;6.90;5.10;;;18.00;99.90;;;;;;4965946;28;23215;-49
2021/06/23 03:40:28;;;;;;;6.83;4.90;;;18.10;99.90;;;;;;4970951;28;20188;-49
2021/06/23 03:42:55;;;;;;;4.63;4.23;;;18.20;99.90;;;;;;4984375;28;20473;-49
2021/06/23 03:45:20;;;;;;;4.25;3.85;;;18.20;99.90;;;;;;4965207;28;20687;-49
2021/06/23 03:47:46;;;;;;;4.00;3.60;;;18.30;99.90;;;;;;4965999;28;20214;-49
2021/06/23 03:50:13;;;;;;;5.70;4.80;;;18.30;99.90;;;;;;4960764;28;20207;-49
2021/06/23 03:52:39;;;;;;;5.20;4.30;;;18.30;99.90;;;;;;4969831;28;20241;-50
2021/06/23 03:55:08;;;;;;;5.40;4.90;;;18.30;99.90;;;;;;4960761;28;20184;-49
2021/06/23 03:57:34;;;;;;;4.03;3.72;;;18.40;99.90;;;;;;4965946;28;20835;-49
2021/06/23 04:00:00;;;;;;;3.50;3.30;;;18.40;99.90;;;;;;4963715;28;20192;-49
2021/06/23 04:02:25;;;;;;;4.73;4.30;;;18.70;99.90;;;;;;4967931;28;20810;-50
2021/06/23 04:04:51;;;;;;;3.90;3.60;;;18.40;99.90;;;;;;4966682;28;20191;-51
2021/06/23 04:07:17;;;;;;;4.27;3.97;;;18.40;99.90;;;;;;4958355;28;20685;-52
2021/06/23 04:09:43;;;;;;;4.63;4.23;;;18.30;99.90;;;;;;4962846;28;20244;-51
2021/06/23 04:12:10;;;;;;;4.40;4.00;;;18.40;99.90;;;;;;4964424;28;20192;-51
2021/06/23 04:14:37;;;;;;;4.90;4.50;;;18.50;99.90;;;;;;4964192;28;20186;-52
2021/06/23 04:17:03;;;;;;;5.20;4.70;;;18.50;99.90;;;;;;4964071;28;20274;-52
2021/06/23 04:19:29;;;;;;;4.50;4.20;;;18.50;99.90;;;;;;4962844;28;20200;-51
2021/06/23 04:21:55;;;;;;;4.20;3.83;;;18.50;99.90;;;;;;4966098;28;20198;-50
2021/06/23 04:24:22;;;;;;;5.93;5.40;;;18.60;99.90;;;;;;4965803;28;20315;-54
2021/06/23 04:26:47;;;;;;;4.60;4.20;;;18.50;99.90;;;;;;4963120;28;20179;-54
2021/06/23 04:29:13;;;;;;;4.27;3.87;;;18.50;99.90;;;;;;4962750;28;20670;-54
2021/06/23 04:31:40;;;;;;;3.95;3.58;;;18.60;99.90;;;;;;4960356;28;20175;-54
2021/06/23 04:34:06;;;;;;;4.85;4.05;;;18.70;99.90;;;;;;4985049;28;20183;-53
2021/06/23 04:36:31;;;;;;;3.77;3.47;;;18.90;99.90;;;;;;4960455;28;20651;-50
2021/06/23 04:38:57;;;;;;;9.17;5.70;;;19.00;99.90;;;;;;4964967;28;20836;-51
2021/06/23 04:41:23;;;;;;;6.00;5.00;;;19.00;99.90;;;;;;4962639;28;20188;-49
2021/06/23 04:43:49;;;;;;;5.70;5.20;;;19.00;99.90;;;;;;4961620;28;20184;-51
2021/06/23 04:46:14;;;;;;;7.17;5.50;;;19.00;99.90;;;;;;4962479;28;21184;-51
2021/06/23 04:48:40;;;;;;;6.37;5.87;;;18.90;99.90;;;;;;4964284;28;20203;-51
2021/06/23 04:51:06;;;;;;;7.00;6.00;;;18.90;99.90;;;;;;4967386;28;20214;-50
2021/06/23 04:53:32;;;;;;;7.53;5.37;;;19.00;99.90;;;;;;4966612;28;20270;-52
2021/06/23 04:55:58;;;;;;;5.28;4.78;;;19.00;99.90;;;;;;4963896;28;21084;-53
2021/06/23 04:58:24;;;;;;;4.75;4.00;;;19.10;99.90;;;;;;4965659;28;20219;-50
2021/06/23 05:00:50;;;;;;;4.93;4.60;;;19.30;99.90;;;;;;4969622;28;20695;-51
2021/06/23 05:03:15;;;;;;;4.50;4.03;;;19.40;99.90;;;;;;4959550;28;20282;-52
2021/06/23 05:05:41;;;;;;;4.40;3.50;;;19.50;99.90;;;;;;4959764;28;21012;-50
2021/06/23 05:08:07;;;;;;;3.50;3.30;;;19.60;99.90;;;;;;4980974;28;20709;-51
2021/06/23 05:10:34;;;;;;;3.40;3.10;;;19.70;99.90;;;;;;4964671;28;20211;-51
2021/06/23 05:13:00;;;;;;;4.22;3.63;;;19.80;99.90;;;;;;4969610;28;20537;-50
2021/06/23 05:15:26;;;;;;;4.47;3.30;;;19.70;99.90;;;;;;4959171;28;20680;-50
2021/06/23 05:17:52;;;;;;;3.65;3.35;;;19.80;99.90;;;;;;4960861;28;20346;-52
2021/06/23 05:20:18;;;;;;;3.70;3.40;;;19.80;99.90;;;;;;4966730;28;20195;-51
2021/06/23 05:22:48;;;;;;;4.07;3.45;;;19.90;99.90;;;;;;4959859;28;20179;-51
2021/06/23 05:25:14;;;;;;;5.85;3.50;;;19.80;99.90;;;;;;4960616;28;20185;-51
2021/06/23 05:27:39;;;;;;;4.25;3.85;;;20.00;99.90;;;;;;4963047;28;20585;-50
2021/06/23 05:30:06;;;;;;;4.03;3.30;;;19.90;99.90;;;;;;4968626;28;20217;-50
2021/06/23 05:32:32;;;;;;;4.22;3.83;;;19.90;99.90;;;;;;4986409;28;20601;-51
2021/06/23 05:34:58;;;;;;;3.47;3.17;;;20.00;99.90;;;;;;4964601;28;20694;-51
2021/06/23 05:37:23;;;;;;;3.53;2.87;;;20.00;99.90;;;;;;4965659;28;20211;-51
2021/06/23 05:39:49;;;;;;;4.23;3.70;;;20.00;99.90;;;;;;4972060;28;20198;-52
2021/06/23 05:42:15;;;;;;;3.33;3.13;;;20.10;99.90;;;;;;4963229;28;20198;-51
2021/06/23 05:44:40;;;;;;;3.40;2.87;;;20.20;99.90;;;;;;4964736;28;20191;-52
2021/06/23 05:47:06;;;;;;;3.20;2.57;;;20.10;99.90;;;;;;4963559;28;20647;-51
2021/06/23 05:49:32;;;;;;;3.30;3.00;;;20.20;99.90;;;;;;4968241;28;20265;-51
2021/06/23 05:51:58;;;;;;;3.03;2.73;;;20.40;99.90;;;;;;4971458;28;20223;-51
2021/06/23 05:54:23;;;;;;;3.13;2.60;;;20.40;99.90;;;;;;4963671;28;20441;-51
2021/06/23 05:56:49;;;;;;;3.17;2.97;;;20.40;99.90;;;;;;4961437;28;20223;-51
2021/06/23 05:59:15;;;;;;;2.33;2.13;;;20.50;99.90;;;;;;4961561;28;20586;-51
2021/06/23 06:01:40;;;;;;;2.53;2.33;;;20.50;99.90;;;;;;4969618;28;20237;-51
2021/06/23 06:04:06;;;;;;;3.47;2.37;;;20.60;99.90;;;;;;4970448;28;20191;-51
2021/06/23 06:06:32;;;;;;;2.00;1.90;;;20.70;99.90;;;;;;4967334;28;20632;-51
2021/06/23 06:08:57;;;;;;;2.10;1.70;;;20.80;99.90;;;;;;4962105;28;20199;-51
2021/06/23 06:11:23;;;;;;;1.93;1.83;;;21.00;99.90;;;;;;4961768;28;20204;-54
2021/06/23 06:13:49;;;;;;;2.40;1.80;;;21.00;99.90;;;;;;4978060;28;20624;-53
2021/06/23 06:16:14;;;;;;;1.63;1.53;;;21.00;99.90;;;;;;4962548;28;20485;-53
2021/06/23 06:18:40;;;;;;;2.87;1.90;;;21.10;99.90;;;;;;4962524;28;20247;-52
2021/06/23 06:21:06;;;;;;;2.30;1.70;;;21.20;99.90;;;;;;4964550;28;20274;-53
2021/06/23 06:23:36;;;;;;;2.40;2.20;;;21.30;99.90;;;;;;4974677;28;20645;-51
2021/06/23 06:26:01;;;;;;;2.05;1.52;;;21.30;99.90;;;;;;4962002;28;20703;-51
2021/06/23 06:28:27;;;;;;;2.37;2.00;;;21.40;99.90;;;;;;4962545;28;20239;-50
2021/06/23 06:30:53;;;;;;;1.93;1.80;;;21.40;99.90;;;;;;4975152;28;20275;-51
2021/06/23 06:33:18;;;;;;;2.73;1.60;;;21.50;99.90;;;;;;4960626;28;20195;-53
2021/06/23 06:35:44;;;;;;;1.73;1.63;;;21.50;99.90;;;;;;4961321;28;20626;-51
2021/06/23 06:38:10;;;;;;;2.07;1.90;;;21.60;99.90;;;;;;4966044;28;20664;-51
2021/06/23 06:40:36;;;;;;;1.80;1.70;;;21.60;99.90;;;;;;4959521;28;20188;-51
2021/06/23 06:43:01;;;;;;;2.30;2.20;;;21.70;99.90;;;;;;4961095;28;20409;-51
2021/06/23 06:45:27;;;;;;;2.40;2.20;;;21.80;99.90;;;;;;4962111;28;20195;-51
2021/06/23 06:47:53;;;;;;;2.50;2.00;;;21.80;99.90;;;;;;4966602;28;20200;-53
2021/06/23 06:50:19;;;;;;;3.20;1.90;;;21.90;99.90;;;;;;4963892;28;20532;-51
2021/06/23 06:52:44;;;;;;;3.10;1.97;;;22.10;99.90;;;;;;4963067;28;20179;-51
2021/06/23 06:55:10;;;;;;;2.37;2.07;;;22.20;99.90;;;;;;4964275;28;20176;-52
2021/06/23 06:57:36;;;;;;;2.85;2.35;;;22.40;99.90;;;;;;4965099;28;20203;-52
2021/06/23 07:00:04;;;;;;;2.50;2.30;;;22.60;99.90;;;;;;4962067;28;20395;-53
2021/06/23 07:02:30;;;;;;;2.25;2.08;;;22.90;99.90;;;;;;4959854;28;20285;-52
2021/06/23 07:04:55;;;;;;;3.10;1.80;;;23.10;99.90;;;;;;4962635;28;20548;-53
2021/06/23 07:07:21;;;;;;;2.43;2.23;;;23.60;99.90;;;;;;4960671;28;20222;-55
2021/06/23 07:09:47;;;;;;;3.30;2.10;;;24.60;99.90;;;;;;4972934;28;20219;-54
2021/06/23 07:12:12;;;;;;;2.17;1.97;;;25.70;98.50;;;;;;4972981;28;20190;-52
2021/06/23 07:14:38;;;;;;;2.40;2.20;;;26.90;95.20;;;;;;4962432;28;20778;-52
2021/06/23 07:17:04;;;;;;;2.17;2.00;;;27.80;92.80;;;;;;4965617;28;20558;-52
2021/06/23 07:19:29;;;;;;;2.30;1.97;;;29.30;89.80;;;;;;4972714;28;20711;-51
2021/06/23 07:21:55;;;;;;;1.97;1.83;;;30.50;84.60;;;;;;4970495;28;20275;-51
2021/06/23 07:24:21;;;;;;;3.20;1.97;;;31.90;79.20;;;;;;4967122;28;20539;-52
2021/06/23 07:26:48;;;;;;;1.60;1.50;;;32.70;73.90;;;;;;4969271;28;20182;-51
2021/06/23 07:29:15;;;;;;;2.67;2.47;;;32.80;71.30;;;;;;4965865;28;20450;-51
2021/06/23 07:37:08;;;;;;;1.93;1.80;;;33.30;69.10;;;;;;4947111;28;21010;-51
2021/06/23 07:39:36;;;;;;;2.17;1.97;;;35.30;63.80;;;;;;4969434;28;20452;-51
2021/06/23 07:42:03;;;;;;;3.57;1.97;;;36.10;58.80;;;;;;4968011;28;20434;-51
2021/06/23 07:44:34;;;;;;;1.90;1.80;;;37.10;55.20;;;;;;4949610;28;20456;-52
2021/06/23 07:47:05;;;;;;;3.00;2.30;;;37.50;53.80;;;;;;4945119;28;20833;-51
2021/06/23 07:49:34;;;;;;;2.00;1.90;;;37.00;53.30;;;;;;4949543;28;20559;-51
2021/06/23 08:12:55;;;;;;;2.07;1.97;;;37.40;50.20;;;;;;4970206;28;20447;-52
2021/06/23 08:15:28;;;;;;;2.17;2.07;;;38.10;49.70;;;;;;4945258;28;20436;-53
2021/06/23 08:17:55;;;;;;;1.80;1.70;;;37.80;48.40;;;;;;4946363;28;20963;-52
2021/06/23 08:20:21;;;;;;;1.87;1.70;;;37.00;51.30;;;;;;4944718;28;20440;-51
2021/06/23 08:22:47;;;;;;;1.97;1.87;;;37.80;49.20;;;;;;4949180;28;20796;-51
2021/06/23 08:25:13;;;;;;;2.20;2.00;;;37.20;48.50;;;;;;4943245;28;20474;-56
2021/06/23 08:27:40;;;;;;;2.20;2.10;;;35.00;52.30;;;;;;4946003;28;20991;-51
2021/06/23 08:30:07;;;;;;;2.30;2.20;;;33.10;54.10;;;;;;4947087;28;20487;-51
2021/06/23 08:32:33;;;;;;;2.00;1.90;;;33.90;54.70;;;;;;4947022;28;20443;-50
2021/06/23 08:34:59;;;;;;;2.23;2.03;;;34.00;55.20;;;;;;4946399;28;20431;-50
2021/06/23 08:37:24;;;;;;;2.20;2.00;;;33.60;55.70;;;;;;4941697;28;20219;-50
2021/06/23 08:39:50;;;;;;;2.17;2.00;;;33.10;57.00;;;;;;4947925;28;20668;-51
2021/06/23 08:42:16;;;;;;;2.03;1.93;;;32.70;57.00;;;;;;4968990;28;20199;-51
2021/06/23 08:44:41;;;;;;;2.30;2.10;;;33.10;56.60;;;;;;4969123;28;20235;-51
2021/06/23 08:47:08;;;;;;;2.47;2.27;;;34.20;54.90;;;;;;4946998;28;20223;-52
2021/06/23 08:49:34;;;;;;;2.40;2.07;;;35.90;52.20;;;;;;4943282;28;20219;-51
2021/06/23 08:52:00;;;;;;;2.20;1.90;;;36.40;50.40;;;;;;4948469;28;20443;-51
2021/06/23 08:54:27;;;;;;;2.70;2.50;;;37.30;49.50;;;;;;4944829;28;20447;-51
2021/06/23 08:56:54;;;;;;;6.50;2.73;;;35.70;50.80;;;;;;4943426;28;20456;-52
2021/06/23 08:59:19;;;;;;;2.13;1.93;;;34.10;53.10;;;;;;4948185;28;20948;-51
2021/06/23 09:01:45;;;;;;;3.47;2.03;;;32.80;55.40;;;;;;4942559;28;20475;-51
2021/06/23 09:04:17;;;;;;;2.03;1.93;;;31.90;57.40;;;;;;4943454;28;20607;-53
2021/06/23 09:06:54;;;;;;;3.00;2.63;;;31.10;59.20;;;;;;4949030;28;20439;-53
2021/06/23 09:09:26;;;;;;;2.50;2.30;;;30.20;62.80;;;;;;4963593;28;20500;-53
2021/06/23 09:11:58;;;;;;;2.30;2.10;;;29.50;66.90;;;;;;4946978;28;20475;-52
2021/06/23 09:14:27;;;;;;;2.30;2.10;;;28.80;68.20;;;;;;4942355;28;20451;-52
2021/06/23 09:17:19;;;;;;;2.00;1.90;;;28.50;69.20;;;;;;4939980;28;20471;-51
2021/06/23 09:19:52;;;;;;;2.67;2.47;;;29.90;68.70;;;;;;4946713;28;20442;-52
2021/06/23 09:22:40;;;;;;;3.43;2.93;;;30.30;65.60;;;;;;4944236;28;20541;-52
2021/06/23 09:25:12;;;;;;;2.13;1.97;;;30.10;68.40;;;;;;4941844;28;21204;-49
2021/06/23 09:27:59;;;;;;;5.00;2.67;;;29.60;67.00;;;;;;4946841;28;20469;-52
2021/06/23 09:30:39;;;;;;;3.80;3.50;;;28.80;72.70;;;;;;4947251;28;20477;-50
2021/06/23 09:33:10;;;;;;;3.23;2.90;;;29.10;74.70;;;;;;4963900;28;20447;-48
2021/06/23 09:35:38;;;;;;;2.70;2.50;;;29.70;72.10;;;;;;4948261;28;20443;-50
2021/06/23 09:38:04;;;;;;;2.77;2.50;;;29.50;71.80;;;;;;4940309;28;20463;-51
2021/06/23 09:40:31;;;;;;;3.70;3.40;;;29.00;73.50;;;;;;4951094;28;20468;-51
2021/06/23 09:43:01;;;;;;;6.80;4.37;;;28.10;76.90;;;;;;4940040;28;20488;-50
2021/06/23 09:45:31;;;;;;;4.70;3.07;;;27.60;79.40;;;;;;4942764;28;20864;-53
2021/06/23 09:48:01;;;;;;;3.10;1.80;;;28.10;79.00;;;;;;4945241;28;20914;-53
2021/06/23 09:50:32;;;;;;;2.53;2.33;;;27.90;81.50;;;;;;4950957;28;21003;-53
2021/06/23 09:53:02;;;;;;;3.17;2.97;;;28.30;79.80;;;;;;4967561;28;20555;-54
2021/06/23 09:55:40;;;;;;;2.10;1.90;;;28.10;81.00;;;;;;4967034;28;20450;-54
2021/06/23 09:58:09;;;;;;;3.40;3.20;;;28.30;81.30;;;;;;4943664;28;20859;-50
2021/06/23 10:01:02;;;;;;;3.53;3.33;;;28.90;79.30;;;;;;4941676;28;20480;-52
2021/06/23 10:03:30;;;;;;;3.40;3.10;;;29.70;74.80;;;;;;4946161;28;20586;-51
2021/06/23 10:05:57;;;;;;;3.10;2.30;;;30.20;71.10;;;;;;4944127;28;20825;-50
2021/06/23 10:08:29;;;;;;;2.63;2.10;;;31.00;67.60;;;;;;4941479;28;20461;-50
2021/06/23 10:10:55;;;;;;;3.50;2.77;;;32.10;61.20;;;;;;4949574;28;20489;-50
2021/06/23 10:13:22;;;;;;;2.90;2.70;;;31.60;62.20;;;;;;4941392;28;20440;-50
2021/06/23 10:15:49;;;;;;;3.30;3.00;;;31.00;65.40;;;;;;4964501;28;20816;-50
2021/06/23 10:18:17;;;;;;;2.50;2.30;;;30.30;70.10;;;;;;4944137;28;20497;-52
2021/06/23 10:20:44;;;;;;;4.10;2.50;;;30.00;71.40;;;;;;4944828;28;20942;-51
2021/06/23 10:23:11;;;;;;;3.10;2.20;;;29.60;73.40;;;;;;4947993;28;20984;-51
2021/06/23 10:25:41;;;;;;;2.77;2.57;;;29.90;71.90;;;;;;4940798;28;20466;-52
2021/06/23 10:28:09;;;;;;;3.67;2.77;;;29.40;73.20;;;;;;4951762;28;20754;-51
2021/06/23 10:30:35;;;;;;;3.70;2.40;;;30.40;69.60;;;;;;4965973;28;20900;-51
2021/06/23 10:33:00;;;;;;;2.00;1.90;;;30.10;68.40;;;;;;4947542;28;20446;-51
2021/06/23 10:35:29;;;;;;;1.90;1.80;;;30.90;67.00;;;;;;4943171;28;20192;-54
2021/06/23 10:37:56;;;;;;;2.77;1.50;;;32.40;58.10;;;;;;4942829;28;20246;-53
2021/06/23 10:40:22;;;;;;;1.30;1.20;;;32.90;55.90;;;;;;4942156;28;20820;-53
2021/06/23 10:42:48;;;;;;;1.63;1.20;;;33.90;51.30;;;;;;4938023;28;20470;-53
2021/06/23 10:45:17;;;;;;;1.00;1.00;;;34.20;48.90;;;;;;4937152;28;20482;-52
2021/06/23 10:47:45;;;;;;;3.43;3.23;;;33.80;48.60;;;;;;4940754;28;20997;-52
2021/06/23 10:50:17;;;;;;;1.90;1.20;;;32.60;51.30;;;;;;4943857;28;20502;-53
2021/06/23 10:52:46;;;;;;;4.67;4.37;;;32.00;54.10;;;;;;4939702;29;20443;-52
2021/06/23 10:55:21;;;;;;;1.87;1.10;;;31.20;53.40;;;;;;4937665;28;20452;-52
2021/06/23 10:57:49;;;;;;;1.63;1.00;;;31.70;53.10;;;;;;4941521;28;21034;-53
2021/06/23 11:00:24;;;;;;;0.80;0.80;;;32.50;50.40;;;;;;4947821;28;20451;-52
2021/06/23 11:03:14;;;;;;;1.43;1.00;;;33.10;48.50;;;;;;4946022;28;20493;-52
2021/06/23 11:05:42;;;;;;;4.00;0.93;;;33.20;48.40;;;;;;4945128;28;20518;-53
2021/06/23 11:08:35;;;;;;;1.13;1.03;;;34.00;48.30;;;;;;4949769;28;20459;-52
2021/06/23 11:11:06;;;;;;;1.30;1.20;;;34.60;45.90;;;;;;4947798;28;21203;-53
2021/06/23 11:13:38;;;;;;;1.10;1.00;;;35.70;44.50;;;;;;4947049;28;20920;-52
2021/06/23 11:16:06;;;;;;;1.07;0.90;;;35.90;41.90;;;;;;4943534;28;20451;-52
2021/06/23 11:18:41;;;;;;;1.50;1.40;;;34.10;44.90;;;;;;4946013;28;20505;-52
2021/06/23 11:21:06;;;;;;;2.90;1.67;;;35.30;45.60;;;;;;4947104;28;20448;-52
2021/06/23 11:23:41;;;;;;;1.97;1.13;;;35.90;44.20;;;;;;4947791;28;20472;-53
2021/06/23 11:26:19;;;;;;;1.47;1.37;;;36.90;41.00;;;;;;4942336;29;20600;-52
2021/06/23 11:29:10;;;;;;;1.10;1.00;;;36.70;40.20;;;;;;4956100;28;20559;-52
2021/06/23 11:31:50;;;;;;;1.30;1.20;;;36.10;42.90;;;;;;4939516;28;20482;-52
2021/06/23 11:34:40;;;;;;;2.10;1.50;;;35.40;44.20;;;;;;4940592;28;20541;-52
2021/06/23 11:37:16;;;;;;;1.30;1.10;;;33.90;46.40;;;;;;4942852;28;20477;-51
2021/06/23 11:39:43;;;;;;;1.30;1.20;;;31.70;50.60;;;;;;4959615;28;20798;-52
2021/06/23 11:42:10;;;;;;;1.20;1.10;;;31.60;51.20;;;;;;4942660;28;20522;-51
2021/06/23 11:44:38;;;;;;;1.70;1.27;;;31.20;51.80;;;;;;4942139;28;20522;-51
2021/06/23 11:47:05;;;;;;;1.73;1.10;;;30.60;52.50;;;;;;4944334;28;20646;-52
2021/06/23 11:49:31;;;;;;;1.40;1.00;;;30.50;52.70;;;;;;4949615;28;20542;-50
2021/06/23 11:52:02;;;;;;;1.00;0.90;;;30.30;53.50;;;;;;4944971;28;20560;-51
2021/06/23 11:54:28;;;;;;;1.43;1.10;;;30.20;52.80;;;;;;4941908;28;20951;-52
2021/06/23 11:56:53;;;;;;;1.53;1.00;;;29.90;53.70;;;;;;4966787;28;20635;-52
2021/06/23 11:59:19;;;;;;;4.10;1.40;;;29.80;55.20;;;;;;4945533;28;20603;-52
2021/06/23 12:01:45;;;;;;;1.10;1.00;;;29.80;56.00;;;;;;4946007;28;20241;-51
2021/06/23 12:04:10;;;;;;;1.67;1.20;;;29.30;55.40;;;;;;4944986;28;20215;-52
2021/06/23 12:06:36;;;;;;;1.27;1.17;;;29.10;55.50;;;;;;4947516;28;20176;-52
2021/06/23 12:09:02;;;;;;;1.40;1.30;;;29.20;57.20;;;;;;4952766;28;20723;-53
2021/06/23 12:11:27;;;;;;;1.23;1.13;;;29.30;57.70;;;;;;4950883;28;20208;-51
2021/06/23 12:13:53;;;;;;;1.37;1.23;;;29.00;57.90;;;;;;4958429;28;20200;-52
2021/06/23 12:16:20;;;;;;;1.20;1.10;;;28.80;57.80;;;;;;4951563;28;20203;-51
2021/06/23 12:18:46;;;;;;;1.53;0.97;;;28.60;58.30;;;;;;4943707;28;20674;-51
2021/06/23 12:21:11;;;;;;;2.00;0.90;;;28.30;58.80;;;;;;4948515;28;20456;-52
2021/06/23 12:23:37;;;;;;;1.10;1.00;;;28.00;59.20;;;;;;4937804;28;20291;-51
2021/06/23 12:26:03;;;;;;;1.20;1.10;;;27.80;60.80;;;;;;4950524;28;20200;-50
2021/06/23 12:28:29;;;;;;;1.30;1.20;;;27.70;59.70;;;;;;4951579;28;20211;-49
2021/06/23 12:30:55;;;;;;;1.17;1.07;;;27.30;61.40;;;;;;4945324;28;20208;-49
2021/06/23 12:33:20;;;;;;;1.20;1.10;;;27.30;61.30;;;;;;4945836;28;20784;-51
2021/06/23 12:35:46;;;;;;;1.20;1.10;;;27.20;61.80;;;;;;4948309;28;20190;-51
2021/06/23 12:38:18;;;;;;;1.10;1.00;;;27.10;63.00;;;;;;4945864;28;20259;-51
2021/06/23 12:40:44;;;;;;;4.40;1.40;;;27.00;63.10;;;;;;4946480;28;20454;-50
2021/06/23 12:43:13;;;;;;;2.33;1.70;;;27.10;63.40;;;;;;4941608;28;20452;-51
2021/06/23 12:45:44;;;;;;;1.20;1.00;;;27.20;62.20;;;;;;4950222;28;20851;-49
2021/06/23 12:48:10;;;;;;;1.07;0.80;;;27.30;61.00;;;;;;4952135;28;20471;-49
2021/06/23 12:50:36;;;;;;;0.80;0.70;;;27.50;60.40;;;;;;4945896;28;21036;-51
2021/06/23 12:53:02;;;;;;;1.00;0.90;;;27.60;60.50;;;;;;4968950;28;20675;-51
2021/06/23 12:55:28;;;;;;;1.00;1.00;;;27.60;58.90;;;;;;4948745;28;20435;-50
2021/06/23 12:57:53;;;;;;;1.37;1.00;;;27.60;58.90;;;;;;4947590;28;20771;-51
2021/06/23 13:00:20;;;;;;;0.80;0.70;;;27.60;58.40;;;;;;4946333;28;20188;-50
2021/06/23 13:02:46;;;;;;;1.10;0.87;;;27.50;58.50;;;;;;4943588;28;20196;-51
2021/06/23 13:05:13;;;;;;;1.10;1.00;;;27.40;57.10;;;;;;4942532;28;20865;-50
2021/06/23 13:07:39;;;;;;;1.20;1.10;;;27.60;58.10;;;;;;4952626;28;20222;-50
2021/06/23 13:10:06;;;;;;;1.00;0.80;;;27.50;56.00;;;;;;4943948;28;20464;-52
2021/06/23 13:12:32;;;;;;;0.83;0.73;;;27.60;55.50;;;;;;4942563;28;20549;-52
2021/06/23 13:14:58;;;;;;;1.23;1.13;;;27.80;56.10;;;;;;4940807;28;20547;-51
2021/06/23 13:17:24;;;;;;;1.60;1.40;;;27.80;56.80;;;;;;4944741;28;20996;-50